createdAt,value
2023-05-06T00:00:03.673Z,3.90
2023-05-06T00:05:05.579Z,3.70
2023-05-06T00:10:07.438Z,3.90
2023-05-06T00:15:09.661Z,3.80
2023-05-06T00:20:11.749Z,3.60
2023-05-06T00:25:13.683Z,3.97
2023-05-06T00:30:15.282Z,4.77
2023-05-06T00:35:16.852Z,3.73
2023-05-06T00:40:18.454Z,4.33
2023-05-06T00:45:20.087Z,4.10
2023-05-06T00:50:22.423Z,3.97
2023-05-06T00:55:24.288Z,4.43
2023-05-06T01:00:26.362Z,4.43
2023-05-06T01:05:35.891Z,4.43
2023-05-06T01:10:57.652Z,4.70
2023-05-06T01:16:00.705Z,5.20
2023-05-06T01:21:05.252Z,5.07
2023-05-06T01:26:06.928Z,4.37
2023-05-06T01:31:17.766Z,5.23
2023-05-06T01:36:25.782Z,4.70
2023-05-06T01:41:28.032Z,4.57
2023-05-06T01:46:30.735Z,5.13
2023-05-06T01:51:35.653Z,5.00
2023-05-06T01:56:37.287Z,5.63
2023-05-06T02:01:39.102Z,5.00
2023-05-06T02:06:40.741Z,5.10
2023-05-06T02:11:42.380Z,5.00
2023-05-06T02:16:44.071Z,5.40
2023-05-06T02:21:45.717Z,5.27
2023-05-06T02:26:47.308Z,4.90
2023-05-06T02:31:48.870Z,4.60
2023-05-06T02:36:50.427Z,4.90
2023-05-06T02:41:52.074Z,4.73
2023-05-06T02:46:53.810Z,4.80
2023-05-06T02:51:55.490Z,4.90
2023-05-06T02:56:57.080Z,5.40
2023-05-06T03:01:58.679Z,4.83
2023-05-06T03:07:00.381Z,5.33
2023-05-06T03:12:02.463Z,4.83
2023-05-06T03:17:04.025Z,4.73
2023-05-06T03:22:05.694Z,5.00
2023-05-06T03:27:07.290Z,5.27
2023-05-06T03:32:09.108Z,5.40
2023-05-06T03:37:10.769Z,5.53
2023-05-06T03:42:12.361Z,5.47
2023-05-06T03:47:14.018Z,4.90
2023-05-06T03:52:15.733Z,4.83
2023-05-06T03:57:17.330Z,5.53
2023-05-06T04:02:21.270Z,7.70
2023-05-06T04:07:22.870Z,5.30
2023-05-06T04:12:24.701Z,7.00
2023-05-06T04:17:26.559Z,4.83
2023-05-06T04:22:28.117Z,7.03
2023-05-06T04:27:32.092Z,7.73
2023-05-06T04:32:34.311Z,6.60
2023-05-06T04:37:36.146Z,6.00
2023-05-06T04:42:38.154Z,5.70
2023-05-06T04:47:40.372Z,5.57
2023-05-06T04:52:42.027Z,4.90
2023-05-06T04:57:43.589Z,6.27
2023-05-06T05:02:45.201Z,7.43
2023-05-06T05:07:46.956Z,7.87
2023-05-06T05:12:48.560Z,9.13
2023-05-06T05:17:51.000Z,11.80
2023-05-06T05:22:52.672Z,9.67
2023-05-06T05:27:54.269Z,8.70
2023-05-06T05:32:56.296Z,9.30
2023-05-06T05:37:57.947Z,7.50
2023-05-06T05:42:59.568Z,7.43
2023-05-06T05:48:01.135Z,7.33
2023-05-06T05:53:02.711Z,7.60
2023-05-06T05:58:04.265Z,7.70
2023-05-06T06:03:06.370Z,8.27
2023-05-06T06:08:08.564Z,8.73
2023-05-06T06:13:10.137Z,9.17
2023-05-06T06:18:11.812Z,10.43
2023-05-06T06:23:13.416Z,9.03
2023-05-06T06:28:15.058Z,9.13
2023-05-06T06:33:16.653Z,9.53
2023-05-06T06:38:18.213Z,10.47
2023-05-06T06:43:20.051Z,10.20
2023-05-06T06:48:21.876Z,10.00
2023-05-06T06:53:23.705Z,10.97
2023-05-06T06:58:25.334Z,9.40
2023-05-06T07:03:26.914Z,9.10
2023-05-06T07:08:28.701Z,8.10
2023-05-06T07:13:30.263Z,8.33
2023-05-06T07:18:31.858Z,8.60
2023-05-06T07:23:33.425Z,8.10
2023-05-06T07:28:34.985Z,7.90
2023-05-06T07:33:36.628Z,7.93
2023-05-06T07:38:38.185Z,7.70
2023-05-06T07:43:39.760Z,7.27
2023-05-06T07:48:41.382Z,6.77
2023-05-06T07:53:43.042Z,7.93
2023-05-06T07:58:44.682Z,7.73
2023-05-06T08:03:46.355Z,7.23
2023-05-06T08:08:48.026Z,6.37
2023-05-06T08:13:49.657Z,6.00
2023-05-06T08:18:51.372Z,5.87
2023-05-06T08:23:52.990Z,4.27
2023-05-06T08:28:56.338Z,4.23
2023-05-06T08:33:57.874Z,5.30
2023-05-06T08:38:59.606Z,4.63
2023-05-06T08:44:03.494Z,4.20
2023-05-06T08:49:06.160Z,4.70
2023-05-06T08:54:09.549Z,4.50
2023-05-06T08:59:11.771Z,4.20
2023-05-06T09:04:13.429Z,4.17
2023-05-06T09:09:15.131Z,4.30
2023-05-06T09:14:18.017Z,4.20
2023-05-06T09:19:21.724Z,2.63
2023-05-06T09:24:24.502Z,2.43
2023-05-06T09:29:26.174Z,2.50
2023-05-06T09:34:27.846Z,2.37
2023-05-06T09:39:29.481Z,2.90
2023-05-06T09:44:31.998Z,2.90
2023-05-06T09:49:33.783Z,3.13
2023-05-06T09:54:35.929Z,2.60
2023-05-06T09:59:41.900Z,2.37
2023-05-06T10:04:45.995Z,3.10
2023-05-06T10:09:50.139Z,2.30
2023-05-06T10:14:51.829Z,2.30
2023-05-06T10:19:59.036Z,2.10
2023-05-06T10:25:08.519Z,2.27
2023-05-06T10:30:13.992Z,1.83
2023-05-06T10:35:33.915Z,2.13
2023-05-06T10:40:35.721Z,2.20
2023-05-06T10:46:10.292Z,2.15
2023-05-06T10:51:17.753Z,2.10
2023-05-06T10:56:19.401Z,2.10
2023-05-06T11:06:48.837Z,2.30
2023-05-06T11:11:53.302Z,2.35
2023-05-06T11:16:58.944Z,2.40
2023-05-06T11:22:02.632Z,2.35
2023-05-06T11:27:04.375Z,2.80
2023-05-06T11:32:21.525Z,1.35
2023-05-06T11:37:27.591Z,2.03
2023-05-06T11:42:29.293Z,1.35
2023-05-06T11:47:30.933Z,1.30
2023-05-06T11:52:32.523Z,1.50
2023-05-06T11:57:34.157Z,1.60
2023-05-06T12:02:35.877Z,1.40
2023-05-06T12:07:37.900Z,1.33
2023-05-06T12:12:39.604Z,1.63
2023-05-06T12:17:41.306Z,1.20
2023-05-06T12:22:42.988Z,1.30
2023-05-06T12:27:45.618Z,1.60
2023-05-06T12:32:57.526Z,1.38
2023-05-06T12:38:09.740Z,1.70
2023-05-06T12:43:12.499Z,1.10
2023-05-06T12:48:17.034Z,1.20
2023-05-06T12:53:32.355Z,1.40
2023-05-06T12:58:37.636Z,1.15
2023-05-06T13:03:40.991Z,1.10
2023-05-06T13:08:43.759Z,1.30
2023-05-06T13:13:45.335Z,1.40
2023-05-06T13:18:46.904Z,1.60
2023-05-06T13:23:48.727Z,1.60
2023-05-06T13:28:50.483Z,1.52
2023-05-06T13:33:52.082Z,1.20
2023-05-06T13:38:54.289Z,1.40
2023-05-06T13:43:56.097Z,1.50
2023-05-06T13:48:57.704Z,1.70
2023-05-06T13:53:59.291Z,1.70
2023-05-06T13:59:00.847Z,1.50
2023-05-06T14:04:02.483Z,1.85
2023-05-06T14:09:04.770Z,1.80
2023-05-06T14:14:06.613Z,1.58
2023-05-06T14:19:08.209Z,1.40
2023-05-06T14:24:10.870Z,1.70
2023-05-06T14:29:12.558Z,1.42
2023-05-06T14:34:14.177Z,1.67
2023-05-06T14:39:15.884Z,1.38
2023-05-06T14:44:17.467Z,1.48
2023-05-06T14:49:19.097Z,1.80
2023-05-06T14:54:20.706Z,1.30
2023-05-06T14:59:22.694Z,1.40
2023-05-06T15:04:24.470Z,1.20
2023-05-06T15:09:26.422Z,1.30
2023-05-06T15:14:28.090Z,1.92
2023-05-06T15:19:29.888Z,1.40
2023-05-06T15:24:31.955Z,1.67
2023-05-06T15:29:33.841Z,1.58
2023-05-06T15:34:35.920Z,1.38
2023-05-06T15:39:38.022Z,1.52
2023-05-06T15:44:39.733Z,1.60
2023-05-06T15:54:49.669Z,1.50
2023-05-06T15:59:51.910Z,1.50
2023-05-06T16:04:53.952Z,1.50
2023-05-06T16:09:55.776Z,1.38
2023-05-06T16:14:57.641Z,1.48
2023-05-06T16:19:59.323Z,1.20
2023-05-06T16:25:01.066Z,1.85
2023-05-06T16:30:02.816Z,1.40
2023-05-06T16:35:04.637Z,1.60
2023-05-06T16:40:08.415Z,1.50
2023-05-06T16:45:11.581Z,1.17
2023-05-06T16:50:14.149Z,1.40
2023-05-06T16:55:15.995Z,1.45
2023-05-06T17:00:18.188Z,1.25
2023-05-06T17:05:22.034Z,1.40
2023-05-06T17:10:29.152Z,1.70
2023-05-06T17:15:31.188Z,1.17
2023-05-06T17:20:40.727Z,1.30
2023-05-06T17:25:49.537Z,1.20
2023-05-06T17:30:51.442Z,1.30
2023-05-06T17:35:53.155Z,1.27
2023-05-06T17:40:54.808Z,1.55
2023-05-06T17:45:56.959Z,1.52
2023-05-06T17:51:02.862Z,1.50
2023-05-06T17:56:04.992Z,1.40
2023-05-06T18:01:06.711Z,1.48
2023-05-06T18:06:08.365Z,1.33
2023-05-06T18:11:10.050Z,1.48
2023-05-06T18:16:11.810Z,1.50
2023-05-06T18:21:13.515Z,1.67
2023-05-06T18:26:21.439Z,1.75
2023-05-06T18:31:30.096Z,1.73
2023-05-06T18:36:32.238Z,1.70
2023-05-06T18:41:33.902Z,1.77
2023-05-06T18:46:35.780Z,1.48
2023-05-06T18:51:37.450Z,1.30
2023-05-06T18:56:39.101Z,1.50
2023-05-06T19:01:40.905Z,1.70
2023-05-06T19:06:42.737Z,1.40
2023-05-06T19:11:44.494Z,1.50
2023-05-06T19:16:46.516Z,1.70
2023-05-06T19:21:48.199Z,1.77
2023-05-06T19:26:49.891Z,1.77
2023-05-06T19:31:51.513Z,1.60
2023-05-06T19:36:53.357Z,1.90
2023-05-06T19:41:55.735Z,1.77
2023-05-06T19:46:57.413Z,1.70
2023-05-06T19:51:59.362Z,1.55
2023-05-06T19:57:01.296Z,2.22
2023-05-06T20:02:03.122Z,1.88
2023-05-06T20:07:04.876Z,1.75
2023-05-06T20:12:06.995Z,1.95
2023-05-06T20:17:08.644Z,2.30
2023-05-06T20:22:10.326Z,2.30
2023-05-06T20:27:12.092Z,1.90
2023-05-06T20:32:13.794Z,1.98
2023-05-06T20:37:16.153Z,1.92
2023-05-06T20:42:17.839Z,1.90
2023-05-06T20:47:19.724Z,1.60
2023-05-06T20:52:21.889Z,1.60
2023-05-06T20:57:23.662Z,1.55
2023-05-06T21:02:26.854Z,1.70
2023-05-06T21:07:28.893Z,1.90
2023-05-06T21:12:30.480Z,2.17
2023-05-06T21:17:32.236Z,2.23
2023-05-06T21:22:34.089Z,1.97
2023-05-06T21:27:35.723Z,2.20
2023-05-06T21:32:37.493Z,2.22
2023-05-06T21:37:39.142Z,2.33
2023-05-06T21:42:40.736Z,3.00
2023-05-06T21:47:43.062Z,3.03
2023-05-06T21:52:44.739Z,2.55
2023-05-06T21:57:46.437Z,2.63
2023-05-06T22:02:48.141Z,2.40
2023-05-06T22:07:50.500Z,2.60
2023-05-06T22:12:52.138Z,2.43
2023-05-06T22:17:53.896Z,2.70
2023-05-06T22:22:56.182Z,2.60
2023-05-06T22:27:57.864Z,2.90
2023-05-06T22:32:59.602Z,3.33
2023-05-06T22:38:01.285Z,3.67
2023-05-06T22:43:03.018Z,3.40
2023-05-06T22:48:05.233Z,3.60
2023-05-06T22:53:15.177Z,3.60
2023-05-06T22:58:17.443Z,3.37
2023-05-06T23:03:19.664Z,3.30
2023-05-06T23:08:21.585Z,3.63
2023-05-06T23:13:23.286Z,3.07
2023-05-06T23:18:25.052Z,3.07
2023-05-06T23:23:26.658Z,3.20
2023-05-06T23:28:28.391Z,3.10
2023-05-06T23:33:30.031Z,3.23
2023-05-06T23:38:31.780Z,3.30
2023-05-06T23:43:33.377Z,3.13
2023-05-06T23:48:35.681Z,3.07
2023-05-06T23:53:37.384Z,3.00
2023-05-06T23:58:40.161Z,3.33
